createdAt,value
2018-08-23T00:01:30.235Z,23.33
2018-08-23T00:04:04.496Z,22.63
2018-08-23T00:06:31.754Z,22.80
2018-08-23T00:08:58.986Z,22.17
2018-08-23T00:11:30.902Z,21.83
2018-08-23T00:13:58.177Z,23.07
2018-08-23T00:16:33.445Z,25.30
2018-08-23T00:19:01.644Z,25.40
2018-08-23T00:21:29.102Z,23.50
2018-08-23T00:24:05.162Z,25.67
2018-08-23T00:26:32.398Z,24.90
2018-08-23T00:28:59.647Z,28.40
2018-08-23T00:31:26.881Z,29.97
2018-08-23T00:33:54.107Z,25.70
2018-08-23T00:36:21.362Z,30.23
2018-08-23T00:38:48.593Z,30.50
2018-08-23T00:41:15.822Z,29.97
2018-08-23T00:43:43.064Z,33.80
2018-08-23T00:46:14.121Z,31.03
2018-08-23T00:48:41.440Z,31.20
2018-08-23T00:51:08.675Z,33.83
2018-08-23T00:53:36.690Z,29.70
2018-08-23T00:56:17.678Z,33.10
2018-08-23T00:59:16.703Z,32.00
2018-08-23T01:01:52.253Z,36.50
2018-08-23T01:04:20.438Z,32.77
2018-08-23T01:06:47.672Z,34.77
2018-08-23T01:09:15.158Z,37.60
2018-08-23T01:11:44.997Z,33.87
2018-08-23T01:14:12.226Z,35.37
2018-08-23T01:16:39.570Z,35.03
2018-08-23T01:19:12.626Z,38.50
2018-08-23T01:21:46.557Z,33.90
2018-08-23T01:24:13.814Z,39.50
2018-08-23T01:26:41.047Z,38.93
2018-08-23T01:29:21.909Z,36.83
2018-08-23T01:31:49.181Z,36.67
2018-08-23T01:34:16.414Z,40.23
2018-08-23T01:36:43.627Z,39.43
2018-08-23T01:39:11.406Z,41.67
2018-08-23T01:41:38.664Z,40.57
2018-08-23T01:44:05.947Z,38.80
2018-08-23T01:46:42.790Z,41.63
2018-08-23T01:49:10.077Z,38.60
2018-08-23T01:51:37.344Z,43.17
2018-08-23T01:54:04.669Z,39.80
2018-08-23T01:56:32.171Z,41.70
2018-08-23T01:58:59.480Z,41.23
2018-08-23T02:01:26.758Z,37.07
2018-08-23T02:03:54.022Z,41.13
2018-08-23T02:06:24.978Z,38.60
2018-08-23T02:08:52.252Z,41.07
2018-08-23T02:11:19.508Z,37.10
2018-08-23T02:13:47.942Z,40.67
2018-08-23T02:16:15.222Z,39.73
2018-08-23T02:18:42.491Z,43.70
2018-08-23T02:21:10.584Z,40.73
2018-08-23T02:23:52.184Z,40.27
2018-08-23T02:26:19.445Z,43.00
2018-08-23T02:28:48.739Z,41.13
2018-08-23T02:31:16.098Z,44.80
2018-08-23T02:33:43.358Z,45.23
2018-08-23T02:36:17.883Z,47.30
2018-08-23T02:38:51.364Z,46.27
2018-08-23T02:41:18.625Z,45.07
2018-08-23T02:43:46.254Z,52.10
2018-08-23T02:46:13.531Z,45.13
2018-08-23T02:48:40.777Z,44.43
2018-08-23T02:51:08.198Z,40.13
2018-08-23T02:53:37.219Z,39.40
2018-08-23T02:56:06.808Z,45.73
2018-08-23T02:58:46.247Z,41.77
2018-08-23T03:01:13.536Z,45.03
2018-08-23T03:03:53.009Z,44.23
2018-08-23T03:06:26.602Z,42.27
2018-08-23T03:08:53.910Z,40.20
2018-08-23T03:11:21.220Z,36.30
2018-08-23T03:13:48.488Z,44.23
2018-08-23T03:16:15.768Z,38.63
2018-08-23T03:18:43.026Z,37.93
2018-08-23T03:21:10.284Z,41.90
2018-08-23T03:23:37.610Z,44.13
2018-08-23T03:26:04.902Z,44.40
2018-08-23T03:28:33.666Z,43.17
2018-08-23T03:31:02.134Z,39.30
2018-08-23T03:33:30.632Z,37.57
2018-08-23T03:35:57.895Z,43.53
2018-08-23T03:38:25.184Z,40.60
2018-08-23T03:40:52.422Z,36.03
2018-08-23T03:43:19.700Z,37.47
2018-08-23T03:45:46.958Z,38.53
2018-08-23T03:48:14.210Z,39.00
2018-08-23T03:50:53.369Z,39.97
2018-08-23T03:53:21.298Z,37.43
2018-08-23T03:56:03.575Z,34.20
2018-08-23T03:58:30.860Z,33.63
2018-08-23T04:01:04.704Z,37.43
2018-08-23T04:03:32.186Z,37.73
2018-08-23T04:06:15.701Z,35.40
2018-08-23T04:08:44.687Z,36.33
2018-08-23T04:11:11.943Z,36.73
2018-08-23T04:13:39.233Z,37.70
2018-08-23T04:16:06.545Z,35.50
2018-08-23T04:18:33.844Z,35.87
2018-08-23T04:21:01.116Z,36.23
2018-08-23T04:23:28.382Z,35.30
2018-08-23T04:25:55.636Z,37.13
2018-08-23T04:28:22.918Z,37.43
2018-08-23T04:30:50.173Z,38.87
2018-08-23T04:33:17.458Z,37.40
2018-08-23T04:35:44.738Z,35.47
2018-08-23T04:38:11.986Z,37.17
2018-08-23T04:40:44.812Z,33.33
2018-08-23T04:43:12.106Z,39.83
2018-08-23T04:45:39.376Z,42.50
2018-08-23T04:48:07.683Z,35.97
2018-08-23T04:50:35.347Z,34.67
2018-08-23T04:53:02.708Z,44.23
2018-08-23T04:55:29.986Z,33.07
2018-08-23T04:57:58.125Z,35.80
2018-08-23T05:00:25.979Z,36.37
2018-08-23T05:02:53.264Z,37.20
2018-08-23T05:05:20.541Z,38.00
2018-08-23T05:07:47.828Z,35.67
2018-08-23T05:10:15.096Z,37.10
2018-08-23T05:12:42.361Z,37.10
2018-08-23T05:15:09.668Z,36.63
2018-08-23T05:17:36.974Z,35.40
2018-08-23T05:20:04.287Z,36.70
2018-08-23T05:22:31.584Z,37.43
2018-08-23T05:25:04.363Z,35.53
2018-08-23T05:27:32.207Z,34.13
2018-08-23T05:29:59.503Z,33.33
2018-08-23T05:32:26.750Z,32.60
2018-08-23T05:34:54.010Z,33.37
2018-08-23T05:37:21.304Z,32.63
2018-08-23T05:39:49.702Z,30.13
2018-08-23T05:43:20.399Z,30.40
2018-08-23T05:45:49.138Z,29.70
2018-08-23T05:48:22.602Z,28.23
2018-08-23T05:50:49.936Z,27.50
2018-08-23T05:53:17.934Z,28.67
2018-08-23T05:55:47.054Z,28.47
2018-08-23T05:58:18.802Z,30.00
2018-08-23T06:00:46.178Z,26.68
2018-08-23T06:03:14.632Z,27.70
2018-08-23T06:05:41.946Z,26.90
2018-08-23T06:08:09.476Z,26.37
2018-08-23T06:10:36.736Z,23.77
2018-08-23T06:13:04.054Z,24.23
2018-08-23T06:15:31.670Z,23.98
2018-08-23T06:17:58.922Z,26.55
2018-08-23T06:20:26.191Z,26.50
2018-08-23T06:22:53.484Z,25.52
2018-08-23T06:25:20.739Z,26.40
2018-08-23T06:27:47.982Z,26.12
2018-08-23T06:30:15.256Z,25.25
2018-08-23T06:32:44.105Z,25.72
2018-08-23T06:35:11.315Z,24.72
2018-08-23T06:37:39.156Z,23.52
2018-08-23T06:40:06.512Z,21.82
2018-08-23T06:42:44.664Z,21.27
2018-08-23T06:45:11.988Z,23.25
2018-08-23T06:47:40.845Z,25.30
2018-08-23T06:50:08.140Z,22.00
2018-08-23T06:52:40.946Z,21.82
2018-08-23T06:55:13.767Z,22.75
2018-08-23T06:57:43.606Z,23.70
2018-08-23T07:00:11.022Z,24.10
2018-08-23T07:02:43.868Z,27.25
2018-08-23T07:05:11.134Z,25.57
2018-08-23T07:07:38.400Z,26.80
2018-08-23T07:10:05.695Z,27.05
2018-08-23T07:12:32.965Z,25.95
2018-08-23T07:15:00.232Z,27.30
2018-08-23T07:17:27.860Z,25.25
2018-08-23T07:19:59.180Z,26.42
2018-08-23T07:22:26.495Z,26.65
2018-08-23T07:24:55.322Z,23.50
2018-08-23T07:27:22.905Z,23.45
2018-08-23T07:29:51.275Z,21.25
2018-08-23T07:32:19.694Z,29.52
2018-08-23T07:35:28.466Z,28.52
2018-08-23T07:37:55.717Z,24.32
2018-08-23T07:40:23.890Z,25.30
2018-08-23T07:42:52.509Z,25.00
2018-08-23T07:45:19.773Z,22.05
2018-08-23T07:47:48.624Z,20.92
2018-08-23T07:50:15.940Z,19.57
2018-08-23T07:52:44.670Z,19.42
2018-08-23T07:55:11.986Z,24.82
2018-08-23T07:57:39.752Z,28.00
2018-08-23T08:00:56.779Z,26.20
2018-08-23T08:03:24.074Z,36.55
2018-08-23T08:05:51.339Z,38.55
2018-08-23T08:08:18.624Z,41.08
2018-08-23T08:10:45.962Z,37.50
2018-08-23T08:13:13.247Z,36.05
2018-08-23T08:15:40.542Z,36.53
2018-08-23T08:18:15.084Z,39.33
2018-08-23T08:20:46.969Z,40.52
2018-08-23T08:23:14.818Z,36.95
2018-08-23T08:25:42.080Z,37.38
2018-08-23T08:28:13.592Z,36.58
2018-08-23T08:30:42.690Z,38.83
2018-08-23T08:33:12.767Z,37.63
2018-08-23T08:35:41.873Z,36.42
2018-08-23T08:38:09.444Z,37.08
2018-08-23T08:40:36.752Z,35.23
2018-08-23T08:43:04.480Z,36.20
2018-08-23T08:45:31.740Z,35.73
2018-08-23T08:48:10.500Z,36.25
2018-08-23T08:50:43.583Z,35.83
2018-08-23T08:53:10.892Z,37.48
2018-08-23T08:55:38.252Z,35.80
2018-08-23T08:58:07.555Z,36.63
2018-08-23T09:00:50.799Z,35.90
2018-08-23T09:03:18.650Z,37.65
2018-08-23T09:05:46.130Z,38.98
2018-08-23T09:08:13.408Z,35.23
2018-08-23T09:10:40.671Z,35.83
2018-08-23T09:13:07.968Z,37.33
2018-08-23T09:15:35.248Z,31.25
2018-08-23T09:18:02.538Z,30.97
2018-08-23T09:20:29.949Z,31.87
2018-08-23T09:22:57.171Z,29.42
2018-08-23T09:25:27.284Z,29.12
2018-08-23T09:27:54.571Z,29.72
2018-08-23T09:30:29.988Z,24.70
2018-08-23T09:33:01.882Z,26.77
2018-08-23T09:35:29.980Z,26.77
2018-08-23T09:37:58.177Z,24.70
2018-08-23T09:40:26.141Z,27.32
2018-08-23T09:42:53.463Z,25.75
2018-08-23T09:45:20.714Z,26.07
2018-08-23T09:47:47.993Z,25.92
2018-08-23T09:50:15.271Z,18.85
2018-08-23T09:52:46.006Z,20.62
2018-08-23T09:55:14.559Z,24.75
2018-08-23T09:57:42.455Z,19.00
2018-08-23T10:00:10.966Z,15.72
2018-08-23T10:04:51.335Z,15.32
2018-08-23T10:07:24.237Z,16.82
2018-08-23T10:09:57.032Z,19.00
2018-08-23T10:12:30.092Z,17.45
2018-08-23T10:15:03.009Z,17.77
2018-08-23T10:17:35.868Z,22.17
2018-08-23T10:20:08.732Z,19.82
2018-08-23T10:22:41.764Z,16.25
2018-08-23T10:25:26.264Z,15.70
2018-08-23T10:27:53.514Z,17.60
2018-08-23T10:30:20.795Z,14.33
2018-08-23T10:32:48.068Z,14.55
2018-08-23T10:35:15.326Z,17.10
2018-08-23T10:37:42.617Z,16.20
2018-08-23T10:40:09.914Z,17.57
2018-08-23T10:42:37.178Z,17.30
2018-08-23T10:45:04.535Z,15.43
2018-08-23T10:48:34.892Z,16.48
2018-08-23T10:51:02.244Z,13.32
2018-08-23T10:53:29.512Z,17.02
2018-08-23T10:55:56.788Z,12.78
2018-08-23T10:58:24.071Z,14.35
2018-08-23T11:00:51.346Z,11.73
2018-08-23T11:03:18.663Z,14.28
2018-08-23T11:05:45.944Z,12.88
2018-08-23T11:08:18.090Z,11.15
2018-08-23T11:10:50.924Z,11.43
2018-08-23T11:13:23.930Z,10.03
2018-08-23T11:15:55.781Z,11.65
2018-08-23T11:18:28.811Z,10.25
2018-08-23T11:20:56.074Z,9.53
2018-08-23T11:23:23.443Z,11.05
2018-08-23T11:25:50.728Z,12.00
2018-08-23T11:28:21.234Z,13.25
2018-08-23T11:30:48.991Z,12.65
2018-08-23T11:33:16.337Z,12.80
2018-08-23T11:35:43.585Z,14.05
2018-08-23T11:38:10.915Z,12.78
2018-08-23T11:40:38.231Z,10.75
2018-08-23T11:43:05.558Z,10.35
2018-08-23T11:45:32.859Z,10.53
2018-08-23T11:48:00.152Z,8.90
2018-08-23T11:50:27.466Z,7.80
2018-08-23T11:52:54.812Z,8.20
2018-08-23T11:55:22.102Z,9.28
2018-08-23T11:57:49.855Z,10.65
2018-08-23T12:00:17.616Z,9.68
2018-08-23T12:02:44.879Z,8.28
2018-08-23T12:05:13.724Z,10.05
2018-08-23T12:07:47.323Z,9.45
2018-08-23T12:10:16.303Z,8.18
2018-08-23T12:12:44.238Z,7.40
2018-08-23T12:15:11.523Z,7.37
2018-08-23T12:17:39.540Z,8.48
2018-08-23T12:20:07.756Z,8.80
2018-08-23T12:22:42.068Z,6.70
2018-08-23T12:25:10.840Z,6.95
2018-08-23T12:27:38.819Z,6.42
2018-08-23T12:30:06.691Z,6.08
2018-08-23T12:32:34.680Z,6.78
2018-08-23T12:35:02.118Z,7.80
2018-08-23T12:37:35.056Z,5.78
2018-08-23T12:40:08.005Z,6.08
2018-08-23T12:42:40.960Z,6.42
2018-08-23T12:45:08.235Z,6.42
2018-08-23T12:47:35.539Z,7.42
2018-08-23T12:50:02.968Z,6.20
2018-08-23T12:52:30.583Z,6.83
2018-08-23T12:54:57.876Z,7.37
2018-08-23T12:57:25.242Z,6.90
2018-08-23T12:59:52.552Z,7.12
2018-08-23T13:02:19.902Z,7.10
2018-08-23T13:04:47.250Z,7.25
2018-08-23T13:07:14.544Z,6.85
2018-08-23T13:09:41.976Z,6.87
2018-08-23T13:12:09.262Z,5.85
2018-08-23T13:14:36.544Z,6.15
2018-08-23T13:17:03.868Z,5.50
2018-08-23T13:19:31.167Z,5.97
2018-08-23T13:22:00.270Z,6.42
2018-08-23T13:24:27.548Z,5.95
2018-08-23T13:26:54.823Z,5.75
2018-08-23T13:29:22.130Z,6.50
2018-08-23T13:31:49.417Z,6.75
2018-08-23T13:34:16.808Z,6.47
2018-08-23T13:36:44.107Z,6.80
2018-08-23T13:39:12.582Z,6.15
2018-08-23T13:41:39.838Z,5.87
2018-08-23T13:44:07.116Z,5.00
2018-08-23T13:46:34.416Z,4.80
2018-08-23T13:49:02.003Z,4.58
2018-08-23T13:51:29.288Z,4.85
2018-08-23T13:53:56.794Z,4.72
2018-08-23T13:56:24.562Z,4.53
2018-08-23T13:58:52.368Z,4.47
2018-08-23T14:01:24.017Z,4.60
2018-08-23T14:03:51.578Z,4.40
2018-08-23T14:06:18.903Z,4.78
2018-08-23T14:08:46.149Z,4.10
2018-08-23T14:11:13.481Z,4.35
2018-08-23T14:13:40.707Z,3.95
2018-08-23T14:16:08.025Z,3.90
2018-08-23T14:18:35.323Z,3.90
2018-08-23T14:21:02.647Z,3.37
2018-08-23T14:23:29.919Z,3.58
2018-08-23T14:25:57.192Z,3.90
2018-08-23T14:28:24.492Z,3.65
2018-08-23T14:30:51.843Z,3.77
2018-08-23T14:33:19.154Z,3.98
2018-08-23T14:35:46.452Z,3.87
2018-08-23T14:38:13.733Z,4.53
2018-08-23T14:40:41.002Z,4.22
2018-08-23T14:43:08.304Z,4.30
2018-08-23T14:45:35.609Z,3.90
2018-08-23T14:48:08.425Z,4.30
2018-08-23T14:50:35.968Z,3.55
2018-08-23T14:53:04.174Z,3.80
2018-08-23T14:55:37.141Z,3.70
2018-08-23T14:58:04.598Z,4.00
2018-08-23T15:00:31.920Z,3.67
2018-08-23T15:02:59.310Z,3.25
2018-08-23T15:05:26.648Z,3.27
2018-08-23T15:07:53.897Z,3.42
2018-08-23T15:10:21.176Z,3.35
2018-08-23T15:12:48.438Z,3.50
2018-08-23T15:15:15.788Z,3.60
2018-08-23T15:17:42.979Z,3.33
2018-08-23T15:20:10.242Z,3.25
2018-08-23T15:22:37.494Z,3.15
2018-08-23T15:25:05.151Z,3.08
2018-08-23T15:27:32.766Z,2.95
2018-08-23T15:30:00.843Z,2.72
2018-08-23T15:32:28.098Z,2.92
2018-08-23T15:34:55.364Z,3.17
2018-08-23T15:37:22.654Z,3.27
2018-08-23T15:39:49.911Z,3.22
2018-08-23T15:42:17.180Z,3.27
2018-08-23T15:44:44.452Z,3.02
2018-08-23T15:47:11.748Z,3.12
2018-08-23T15:49:39.032Z,2.92
2018-08-23T15:52:06.436Z,3.30
2018-08-23T15:54:33.795Z,2.87
2018-08-23T15:57:01.084Z,3.62
2018-08-23T15:59:28.355Z,3.10
2018-08-23T16:01:55.623Z,3.42
2018-08-23T16:04:22.884Z,3.85
2018-08-23T16:06:50.196Z,3.02
2018-08-23T16:09:17.473Z,3.80
2018-08-23T16:11:44.757Z,3.50
2018-08-23T16:14:12.022Z,3.70
2018-08-23T16:16:44.830Z,3.75
2018-08-23T16:19:17.716Z,3.98
2018-08-23T16:21:49.587Z,3.60
2018-08-23T16:24:17.076Z,4.42
2018-08-23T16:26:50.175Z,4.72
2018-08-23T16:29:17.421Z,4.37
2018-08-23T16:31:44.712Z,4.53
2018-08-23T16:34:11.978Z,4.75
2018-08-23T16:36:39.240Z,4.78
2018-08-23T16:39:07.208Z,5.20
2018-08-23T16:41:34.547Z,5.42
2018-08-23T16:44:01.834Z,5.17
2018-08-23T16:46:29.200Z,5.28
2018-08-23T16:48:56.470Z,5.53
2018-08-23T16:51:23.782Z,5.40
2018-08-23T16:53:51.096Z,5.00
2018-08-23T16:56:19.159Z,6.05
2018-08-23T16:58:46.436Z,5.28
2018-08-23T17:01:13.706Z,4.72
2018-08-23T17:03:40.946Z,5.75
2018-08-23T17:06:08.327Z,5.80
2018-08-23T17:08:35.595Z,5.72
2018-08-23T17:11:02.964Z,6.28
2018-08-23T17:13:36.442Z,6.28
2018-08-23T17:16:10.135Z,6.37
2018-08-23T17:18:37.501Z,5.75
2018-08-23T17:21:04.796Z,5.90
2018-08-23T17:23:32.048Z,6.80
2018-08-23T17:25:59.321Z,7.00
2018-08-23T17:28:26.590Z,6.20
2018-08-23T17:30:53.871Z,6.55
2018-08-23T17:33:21.325Z,6.22
2018-08-23T17:35:48.586Z,6.72
2018-08-23T17:38:15.899Z,6.50
2018-08-23T17:40:43.157Z,7.05
2018-08-23T17:43:10.416Z,6.62
2018-08-23T17:45:37.666Z,8.08
2018-08-23T17:48:05.021Z,7.55
2018-08-23T17:50:32.254Z,7.83
2018-08-23T17:52:59.552Z,7.90
2018-08-23T17:55:26.818Z,8.40
2018-08-23T17:57:54.051Z,7.78
2018-08-23T18:00:21.378Z,7.10
2018-08-23T18:02:48.682Z,8.78
2018-08-23T18:05:15.934Z,8.85
2018-08-23T18:07:43.258Z,8.93
2018-08-23T18:10:10.527Z,8.63
2018-08-23T18:12:37.794Z,9.33
2018-08-23T18:15:07.984Z,8.28
2018-08-23T18:17:35.264Z,8.45
2018-08-23T18:20:02.657Z,8.48
2018-08-23T18:22:29.949Z,7.92
2018-08-23T18:24:57.240Z,8.73
2018-08-23T18:27:24.517Z,7.28
2018-08-23T18:29:51.781Z,7.50
2018-08-23T18:32:19.135Z,7.67
2018-08-23T18:34:46.328Z,7.10
2018-08-23T18:37:13.629Z,7.37
2018-08-23T18:39:40.909Z,7.22
2018-08-23T18:42:08.384Z,7.28
2018-08-23T18:44:35.673Z,7.58
2018-08-23T18:47:02.955Z,6.80
2018-08-23T18:49:30.234Z,6.53
2018-08-23T18:51:57.572Z,7.10
2018-08-23T18:54:24.856Z,7.47
2018-08-23T18:56:52.158Z,6.80
2018-08-23T18:59:19.451Z,7.35
2018-08-23T19:01:46.720Z,7.08
2018-08-23T19:04:14.010Z,6.58
2018-08-23T19:06:41.292Z,7.72
2018-08-23T19:09:11.016Z,7.10
2018-08-23T19:11:38.280Z,6.80
2018-08-23T19:14:05.580Z,6.75
2018-08-23T19:16:38.462Z,7.80
2018-08-23T19:19:06.092Z,7.95
2018-08-23T19:21:33.279Z,7.37
2018-08-23T19:24:00.548Z,8.18
2018-08-23T19:26:27.821Z,8.58
2018-08-23T19:28:55.160Z,7.50
2018-08-23T19:31:22.447Z,7.70
2018-08-23T19:33:49.699Z,7.40
2018-08-23T19:36:16.958Z,8.33
2018-08-23T19:38:44.270Z,8.25
2018-08-23T19:41:11.543Z,7.60
2018-08-23T19:43:38.833Z,8.28
2018-08-23T19:46:11.724Z,9.70
2018-08-23T19:48:39.571Z,8.93
2018-08-23T19:51:07.105Z,10.08
2018-08-23T19:53:34.404Z,9.48
2018-08-23T19:56:01.700Z,9.58
2018-08-23T19:58:28.999Z,9.68
2018-08-23T20:00:56.281Z,10.25
2018-08-23T20:03:23.566Z,10.10
2018-08-23T20:05:50.864Z,9.68
2018-08-23T20:08:18.248Z,9.60
2018-08-23T20:10:45.552Z,9.98
2018-08-23T20:13:12.834Z,9.63
2018-08-23T20:15:40.126Z,9.25
2018-08-23T20:18:07.435Z,9.48
2018-08-23T20:20:34.731Z,9.33
2018-08-23T20:23:02.017Z,9.03
2018-08-23T20:25:29.275Z,9.08
2018-08-23T20:27:56.580Z,9.70
2018-08-23T20:30:23.892Z,8.70
2018-08-23T20:32:51.168Z,9.43
2018-08-23T20:35:18.531Z,9.38
2018-08-23T20:37:45.814Z,9.05
2018-08-23T20:40:13.124Z,8.28
2018-08-23T20:42:40.417Z,9.03
2018-08-23T20:45:07.731Z,9.58
2018-08-23T20:47:34.997Z,8.68
2018-08-23T20:50:02.334Z,9.03
2018-08-23T20:52:29.590Z,8.98
2018-08-23T20:54:56.892Z,9.05
2018-08-23T20:57:24.196Z,8.30
2018-08-23T20:59:51.463Z,7.80
2018-08-23T21:02:18.733Z,8.75
2018-08-23T21:04:46.024Z,9.23
2018-08-23T21:07:13.322Z,9.55
2018-08-23T21:09:40.606Z,8.60
2018-08-23T21:12:07.984Z,8.23
2018-08-23T21:14:35.250Z,8.80
2018-08-23T21:17:02.529Z,8.93
2018-08-23T21:19:29.848Z,8.63
2018-08-23T21:21:57.123Z,8.95
2018-08-23T21:24:24.463Z,9.25
2018-08-23T21:26:51.732Z,9.13
2018-08-23T21:29:19.026Z,9.40
2018-08-23T21:31:46.316Z,9.05
2018-08-23T21:34:13.592Z,9.43
2018-08-23T21:36:40.860Z,8.83
2018-08-23T21:39:08.955Z,9.53
2018-08-23T21:41:36.262Z,9.48
2018-08-23T21:44:03.982Z,8.40
2018-08-23T21:46:31.279Z,8.55
2018-08-23T21:48:58.559Z,8.03
2018-08-23T21:51:25.882Z,8.13
2018-08-23T21:53:53.158Z,8.73
2018-08-23T21:56:20.419Z,7.87
2018-08-23T21:58:47.723Z,8.53
2018-08-23T22:01:15.011Z,8.20
2018-08-23T22:03:42.320Z,7.53
2018-08-23T22:06:09.622Z,7.47
2018-08-23T22:08:36.944Z,7.53
2018-08-23T22:11:04.387Z,7.42
2018-08-23T22:13:37.366Z,7.03
2018-08-23T22:16:04.716Z,6.90
2018-08-23T22:18:32.041Z,7.65
2018-08-23T22:20:59.342Z,7.00
2018-08-23T22:23:26.638Z,7.37
2018-08-23T22:25:53.912Z,7.00
2018-08-23T22:28:21.218Z,7.05
2018-08-23T22:30:48.539Z,6.75
2018-08-23T22:33:15.835Z,7.78
2018-08-23T22:35:43.104Z,6.15
2018-08-23T22:38:10.677Z,6.75
2018-08-23T22:40:38.166Z,7.87
2018-08-23T22:43:05.650Z,6.83
2018-08-23T22:45:32.986Z,7.08
2018-08-23T22:48:00.355Z,6.30
2018-08-23T22:50:27.661Z,6.47
2018-08-23T22:52:55.114Z,6.30
2018-08-23T22:55:22.408Z,5.90
2018-08-23T22:57:49.676Z,5.78
2018-08-23T23:00:17.032Z,6.00
2018-08-23T23:02:44.342Z,6.12
2018-08-23T23:05:11.719Z,5.78
2018-08-23T23:07:38.973Z,5.45
2018-08-23T23:10:06.861Z,5.97
2018-08-23T23:12:34.215Z,6.17
2018-08-23T23:15:05.415Z,6.08
2018-08-23T23:17:32.753Z,5.25
2018-08-23T23:20:00.064Z,5.70
2018-08-23T23:22:27.332Z,5.87
2018-08-23T23:25:01.358Z,5.42
2018-08-23T23:27:28.835Z,6.28
2018-08-23T23:29:56.394Z,5.57
2018-08-23T23:32:23.692Z,5.37
2018-08-23T23:34:51.011Z,5.83
2018-08-23T23:37:18.259Z,4.40
2018-08-23T23:39:45.538Z,5.03
2018-08-23T23:42:12.838Z,5.50
2018-08-23T23:44:40.210Z,5.50
2018-08-23T23:47:07.408Z,5.03
2018-08-23T23:49:34.650Z,5.45
2018-08-23T23:52:01.925Z,4.72
2018-08-23T23:54:29.188Z,4.30
2018-08-23T23:56:56.468Z,4.72
2018-08-23T23:59:23.728Z,5.15
